Terminal Aerodrome Forecast
Issued by NWS

Home | Current Version | Previous Version | Text Only | Print | Product List | Glossary On
Versions: 1 2 3 4 5 6 7 8 9 10 11 12 13 14
000
FTUS41 KAKQ 291100
TAFPHF
TAF
KPHF 291140Z 2912/3012 33005KT P6SM BKN100
     FM291400 35008KT P6SM SCT100
     FM291600 01007KT P6SM SCT030
     FM292300 05004KT P6SM SKC
     FM300300 00000KT P6SM SKC=

USA.gov is the U.S. government's official web portal to all federal, state and local government web resources and services.